Time;durP1;ratioP1;P1;durP2;ratioP2;P2;SDS_P1;SDS_P2;PMS_P1;PMS_P2;Temp;Humidity;BMP_temperature;BMP_pressure;BME280_temperature;BME280_humidity;BME280_pressure;Samples;Min_cycle;Max_cycle;Signal;HPM_P1;HPM_P2
2024/01/15 00:01:23;;;;;;;45.00;20.48;;;0.10;77.60;;;;;;5007011;28;20225;-76
2024/01/15 00:03:51;;;;;;;53.97;20.08;;;0.10;77.70;;;;;;5003953;28;20283;-76
2024/01/15 00:06:20;;;;;;;46.03;20.25;;;0.20;77.60;;;;;;5004920;28;20257;-77
2024/01/15 00:08:49;;;;;;;50.78;21.20;;;0.10;77.50;;;;;;5001297;28;20214;-76
2024/01/15 00:11:17;;;;;;;47.95;20.80;;;0.10;77.50;;;;;;5015279;28;20222;-76
2024/01/15 00:13:45;;;;;;;57.15;23.67;;;0.10;77.50;;;;;;4999663;28;20205;-76
2024/01/15 00:16:14;;;;;;;56.70;24.45;;;0.10;77.50;;;;;;5003117;28;20230;-76
2024/01/15 00:18:42;;;;;;;53.25;23.40;;;0.10;77.60;;;;;;5001295;28;20774;-76
2024/01/15 00:21:11;;;;;;;54.92;21.95;;;0.10;77.60;;;;;;5001409;28;20261;-76
2024/01/15 00:23:44;;;;;;;50.90;22.58;;;0.10;77.60;;;;;;5021893;28;20210;-77
2024/01/15 00:26:14;;;;;;;46.17;21.25;;;0.00;77.60;;;;;;5019621;28;20293;-76
2024/01/15 00:28:42;;;;;;;58.70;24.08;;;0.00;77.60;;;;;;5006400;28;20285;-76
2024/01/15 00:31:10;;;;;;;56.20;23.95;;;0.00;77.70;;;;;;5004181;28;20248;-77
2024/01/15 00:33:38;;;;;;;50.95;22.88;;;0.00;77.70;;;;;;5006789;28;20287;-77
2024/01/15 00:36:07;;;;;;;56.50;21.80;;;0.00;77.70;;;;;;5008737;28;20225;-77
2024/01/15 00:38:35;;;;;;;63.90;23.83;;;-0.10;77.70;;;;;;5010005;28;20550;-77
2024/01/15 00:41:04;;;;;;;53.95;21.30;;;0.00;77.70;;;;;;5003196;28;20201;-78
2024/01/15 00:43:34;;;;;;;52.72;22.10;;;-0.10;77.80;;;;;;5007723;28;20208;-78
2024/01/15 00:46:03;;;;;;;50.38;21.48;;;0.00;77.90;;;;;;5009062;28;20217;-77
2024/01/15 00:48:31;;;;;;;53.33;21.05;;;0.00;77.90;;;;;;5009679;28;20273;-77
2024/01/15 00:50:59;;;;;;;48.88;20.65;;;0.00;77.90;;;;;;5005907;28;20197;-78
2024/01/15 00:53:27;;;;;;;45.97;22.10;;;0.00;77.90;;;;;;5007420;28;20224;-77
2024/01/15 00:56:03;;;;;;;52.00;19.40;;;0.00;77.80;;;;;;5002483;28;20266;-78
2024/01/15 00:58:34;;;;;;;48.65;20.67;;;0.00;77.90;;;;;;5005725;28;20213;-78
2024/01/15 01:01:02;;;;;;;45.83;19.95;;;0.00;77.80;;;;;;5002631;28;20325;-78
2024/01/15 01:03:30;;;;;;;53.35;20.92;;;0.00;77.80;;;;;;5021604;28;20217;-79
2024/01/15 01:05:58;;;;;;;49.95;20.23;;;0.00;77.80;;;;;;5007008;28;20212;-78
2024/01/15 01:08:26;;;;;;;49.60;20.85;;;0.00;77.90;;;;;;5012460;28;20542;-78
2024/01/15 01:10:56;;;;;;;45.67;20.77;;;0.00;77.90;;;;;;5011230;28;20204;-78
2024/01/15 01:13:24;;;;;;;51.00;21.90;;;0.00;77.90;;;;;;5014614;28;20315;-77
2024/01/15 01:15:54;;;;;;;53.20;21.50;;;0.00;77.90;;;;;;5012205;28;20222;-77
2024/01/15 01:18:22;;;;;;;46.97;21.63;;;0.00;77.90;;;;;;5014797;28;20216;-76
2024/01/15 01:20:51;;;;;;;50.30;21.33;;;0.00;77.90;;;;;;5006039;28;20247;-78
2024/01/15 01:23:18;;;;;;;48.33;21.90;;;-0.10;77.90;;;;;;5006363;28;20205;-77
2024/01/15 01:25:46;;;;;;;44.17;20.63;;;-0.10;77.90;;;;;;5002522;28;20232;-77
2024/01/15 01:28:14;;;;;;;41.55;20.38;;;-0.10;78.00;;;;;;5002350;28;20203;-77
2024/01/15 01:30:42;;;;;;;46.72;20.33;;;-0.10;78.00;;;;;;5003262;28;20226;-77
2024/01/15 01:33:12;;;;;;;47.95;20.98;;;-0.10;78.00;;;;;;5007608;28;20290;-77
2024/01/15 01:35:40;;;;;;;45.10;20.33;;;-0.10;78.10;;;;;;5006075;28;20210;-77
2024/01/15 01:38:08;;;;;;;42.22;18.33;;;-0.10;78.20;;;;;;5009610;28;20222;-76
2024/01/15 01:40:36;;;;;;;48.17;20.27;;;-0.10;78.20;;;;;;5001263;28;20204;-76
2024/01/15 01:43:05;;;;;;;40.33;18.85;;;0.00;78.20;;;;;;4998680;28;20746;-76
2024/01/15 01:45:33;;;;;;;46.50;19.02;;;0.00;78.20;;;;;;5014824;28;20197;-76
2024/01/15 01:48:01;;;;;;;37.47;17.73;;;-0.10;78.10;;;;;;4999111;28;20198;-76
2024/01/15 01:50:32;;;;;;;39.60;19.60;;;0.00;78.20;;;;;;5001260;28;20215;-76
2024/01/15 01:53:01;;;;;;;43.25;19.40;;;0.00;78.20;;;;;;4999629;28;20198;-77
2024/01/15 01:55:33;;;;;;;41.42;17.75;;;0.00;78.20;;;;;;4999813;28;20514;-76
2024/01/15 01:58:02;;;;;;;41.88;18.88;;;0.00;78.20;;;;;;5007031;28;20262;-76
2024/01/15 02:00:32;;;;;;;38.30;18.45;;;0.00;78.20;;;;;;5003967;28;20233;-76
2024/01/15 02:03:00;;;;;;;37.22;17.42;;;0.00;78.20;;;;;;5007524;28;20202;-76
2024/01/15 02:05:33;;;;;;;38.20;18.15;;;0.00;78.20;;;;;;5011138;28;20209;-78
2024/01/15 02:08:03;;;;;;;39.40;17.23;;;0.00;78.30;;;;;;5011169;28;20201;-77
2024/01/15 02:10:31;;;;;;;44.10;18.75;;;0.00;78.20;;;;;;5030790;28;20285;-77
2024/01/15 02:13:01;;;;;;;34.28;16.48;;;0.00;78.20;;;;;;5014481;28;20787;-78
2024/01/15 02:15:29;;;;;;;32.05;17.05;;;0.10;78.30;;;;;;5007421;28;20215;-77
2024/01/15 02:18:00;;;;;;;39.17;17.10;;;0.00;78.20;;;;;;5012641;28;20214;-77
2024/01/15 02:20:29;;;;;;;41.70;18.02;;;0.00;78.20;;;;;;5011604;28;20213;-77
2024/01/15 02:23:06;;;;;;;41.58;18.60;;;0.00;78.30;;;;;;5011826;28;20219;-78
2024/01/15 02:25:35;;;;;;;36.08;16.10;;;0.10;78.50;;;;;;5030439;28;20777;-78
2024/01/15 02:28:04;;;;;;;39.00;17.52;;;0.10;78.30;;;;;;5014956;28;20293;-78
2024/01/15 02:30:37;;;;;;;34.63;16.90;;;0.10;78.40;;;;;;5003393;28;20665;-77
2024/01/15 02:33:06;;;;;;;36.00;15.82;;;0.10;78.40;;;;;;4991235;28;20219;-77
2024/01/15 02:35:37;;;;;;;32.15;15.95;;;0.10;78.30;;;;;;4989395;28;20219;-77
2024/01/15 02:38:07;;;;;;;35.92;15.85;;;0.10;78.40;;;;;;4992385;28;20216;-77
2024/01/15 02:40:36;;;;;;;33.63;17.52;;;0.10;78.40;;;;;;5005657;28;20213;-78
2024/01/15 02:43:04;;;;;;;29.48;14.95;;;0.10;78.40;;;;;;4990405;28;20210;-76
2024/01/15 02:45:31;;;;;;;37.22;15.77;;;0.10;78.40;;;;;;5002125;28;20816;-76
2024/01/15 02:47:59;;;;;;;36.72;15.90;;;0.10;78.50;;;;;;4985605;28;20222;-76
2024/01/15 02:50:27;;;;;;;30.48;14.77;;;0.10;78.50;;;;;;4989093;28;20195;-76
2024/01/15 02:52:56;;;;;;;37.83;17.27;;;0.10;78.60;;;;;;4987448;28;20217;-77
2024/01/15 02:55:29;;;;;;;35.42;15.25;;;0.10;78.60;;;;;;4987586;28;20203;-77
2024/01/15 02:57:57;;;;;;;27.92;14.68;;;0.10;78.60;;;;;;4989536;28;20223;-77
2024/01/15 03:00:25;;;;;;;36.15;15.70;;;0.10;78.70;;;;;;5001084;28;20309;-77
2024/01/15 03:02:53;;;;;;;36.60;15.25;;;0.10;78.70;;;;;;4987684;28;20229;-76
2024/01/15 03:05:21;;;;;;;34.05;15.48;;;0.10;78.70;;;;;;4988098;28;20272;-76
2024/01/15 03:07:49;;;;;;;28.08;13.15;;;0.20;78.70;;;;;;4987169;28;20324;-76
2024/01/15 03:10:17;;;;;;;28.77;15.10;;;0.20;78.70;;;;;;4989476;28;20201;-77
2024/01/15 03:12:47;;;;;;;33.10;16.00;;;0.20;78.70;;;;;;5009233;28;20220;-78
2024/01/15 03:15:16;;;;;;;27.92;14.23;;;0.20;78.70;;;;;;4989024;28;20235;-77
2024/01/15 03:17:44;;;;;;;37.33;15.60;;;0.30;78.80;;;;;;4997430;28;20260;-78
2024/01/15 03:20:12;;;;;;;33.97;15.27;;;0.20;78.70;;;;;;4991501;28;20209;-77
2024/01/15 03:22:44;;;;;;;33.22;15.10;;;0.30;78.70;;;;;;4998489;28;20215;-78
2024/01/15 03:25:12;;;;;;;36.80;15.65;;;0.30;78.80;;;;;;4992652;28;20242;-78
2024/01/15 03:27:40;;;;;;;35.50;15.57;;;0.30;78.80;;;;;;4993587;28;20207;-78
2024/01/15 03:30:10;;;;;;;29.02;13.98;;;0.40;78.90;;;;;;4997154;28;20214;-79
2024/01/15 03:32:38;;;;;;;31.90;14.73;;;0.40;78.80;;;;;;4999667;28;20243;-79
2024/01/15 03:35:07;;;;;;;30.75;14.60;;;0.40;78.70;;;;;;4994044;28;20199;-79
2024/01/15 03:37:37;;;;;;;26.90;13.55;;;0.40;78.70;;;;;;4997431;28;20219;-79
2024/01/15 03:40:08;;;;;;;25.33;13.27;;;0.40;78.70;;;;;;4992193;28;20206;-78
2024/01/15 03:42:36;;;;;;;32.72;14.85;;;0.40;78.70;;;;;;5009602;28;20207;-78
2024/01/15 03:45:06;;;;;;;35.17;15.30;;;0.40;78.70;;;;;;4993969;28;20268;-78
2024/01/15 03:47:35;;;;;;;33.42;15.27;;;0.40;78.70;;;;;;4990560;28;20275;-78
2024/01/15 03:50:04;;;;;;;32.35;15.07;;;0.40;78.80;;;;;;4988430;28;20207;-78
2024/01/15 03:52:32;;;;;;;31.55;14.05;;;0.50;78.80;;;;;;4993805;28;20205;-78
2024/01/15 03:55:00;;;;;;;31.73;14.02;;;0.50;78.80;;;;;;4984215;28;20221;-77
2024/01/15 03:57:28;;;;;;;32.63;15.38;;;0.50;78.80;;;;;;4986513;28;20300;-77
2024/01/15 03:59:56;;;;;;;31.08;16.48;;;0.50;78.70;;;;;;4991686;28;20609;-77
2024/01/15 04:02:24;;;;;;;33.45;13.63;;;0.50;78.70;;;;;;4983191;28;20246;-76
2024/01/15 04:04:53;;;;;;;29.85;14.52;;;0.50;78.60;;;;;;5002729;28;20229;-76
2024/01/15 04:07:21;;;;;;;29.00;15.27;;;0.50;78.70;;;;;;4987218;28;20330;-77
2024/01/15 04:09:49;;;;;;;31.45;12.95;;;0.50;78.70;;;;;;4986462;28;20198;-77
2024/01/15 04:12:17;;;;;;;28.08;13.95;;;0.50;78.70;;;;;;4982300;28;20612;-77
2024/01/15 04:14:45;;;;;;;31.98;14.27;;;0.50;78.70;;;;;;4982622;28;20673;-77
2024/01/15 04:17:13;;;;;;;31.83;15.48;;;0.50;78.80;;;;;;4991447;28;20224;-76
2024/01/15 04:19:44;;;;;;;28.10;13.68;;;0.60;78.80;;;;;;4992880;28;20537;-77
2024/01/15 04:22:15;;;;;;;29.83;14.48;;;0.60;78.80;;;;;;4986690;28;20310;-78
2024/01/15 04:24:43;;;;;;;30.50;13.52;;;0.60;78.80;;;;;;5005661;28;20234;-77
2024/01/15 04:27:11;;;;;;;33.22;14.75;;;0.60;78.80;;;;;;5005138;28;20222;-77
2024/01/15 04:29:39;;;;;;;31.25;13.98;;;0.60;78.80;;;;;;4992256;28;20202;-77
2024/01/15 04:32:08;;;;;;;31.55;14.82;;;0.60;78.70;;;;;;4994709;28;20250;-78
2024/01/15 04:34:36;;;;;;;28.73;13.38;;;0.70;78.80;;;;;;5000078;28;20206;-78
2024/01/15 04:37:05;;;;;;;28.75;13.68;;;0.70;78.70;;;;;;4986206;28;20239;-78
2024/01/15 04:39:34;;;;;;;29.65;14.00;;;0.70;78.70;;;;;;4989485;28;20207;-78
2024/01/15 04:42:02;;;;;;;30.20;14.32;;;0.70;78.70;;;;;;4987072;28;20319;-78
2024/01/15 04:44:31;;;;;;;27.02;12.65;;;0.60;78.70;;;;;;4991531;28;20219;-78
2024/01/15 04:46:59;;;;;;;31.35;15.05;;;0.70;78.70;;;;;;4990518;28;20207;-78
2024/01/15 04:49:29;;;;;;;31.27;14.60;;;0.60;78.80;;;;;;4993791;28;20213;-78
2024/01/15 04:51:57;;;;;;;30.27;15.10;;;0.60;78.80;;;;;;4989068;28;20203;-78
2024/01/15 04:54:25;;;;;;;32.70;15.10;;;0.60;78.90;;;;;;4990957;28;20737;-78
2024/01/15 04:56:55;;;;;;;33.25;15.30;;;0.60;78.90;;;;;;4990706;28;20223;-78
2024/01/15 04:59:23;;;;;;;32.92;14.13;;;0.70;79.00;;;;;;4993677;28;20212;-78
2024/01/15 05:01:51;;;;;;;31.58;15.00;;;0.70;79.10;;;;;;4991991;28;20251;-78
2024/01/15 05:04:19;;;;;;;34.13;14.32;;;0.70;79.00;;;;;;4991045;28;20225;-77
2024/01/15 05:06:48;;;;;;;31.73;14.68;;;0.70;78.80;;;;;;4986785;28;20223;-77
2024/01/15 05:09:17;;;;;;;29.15;14.02;;;0.70;78.90;;;;;;4983132;28;20199;-77
2024/01/15 05:11:45;;;;;;;30.08;13.57;;;0.70;78.80;;;;;;5004600;28;20476;-77
2024/01/15 05:14:17;;;;;;;31.83;15.65;;;0.70;78.90;;;;;;4989522;28;20221;-77
2024/01/15 05:16:48;;;;;;;35.13;14.63;;;0.70;79.00;;;;;;4983241;28;20208;-77
2024/01/15 05:19:16;;;;;;;28.42;14.00;;;0.80;79.00;;;;;;4988001;28;21175;-77
2024/01/15 05:21:44;;;;;;;29.98;14.48;;;0.80;79.00;;;;;;4988990;28;20219;-77
2024/01/15 05:24:12;;;;;;;30.88;13.88;;;0.80;79.00;;;;;;4986736;28;20201;-77
2024/01/15 05:26:40;;;;;;;28.10;13.43;;;0.80;78.90;;;;;;4988516;28;20209;-77
2024/01/15 05:29:08;;;;;;;38.13;15.98;;;0.90;78.90;;;;;;4989744;28;20316;-78
2024/01/15 05:31:38;;;;;;;43.65;17.02;;;0.90;78.90;;;;;;5000943;28;21142;-78
2024/01/15 05:34:06;;;;;;;37.53;17.33;;;0.90;78.90;;;;;;5009135;28;20223;-77
2024/01/15 05:36:34;;;;;;;38.17;16.48;;;0.90;78.90;;;;;;5020929;28;20203;-76
2024/01/15 05:39:03;;;;;;;32.05;15.30;;;0.90;78.90;;;;;;5020159;28;20259;-77
2024/01/15 05:41:32;;;;;;;33.40;15.30;;;0.80;78.90;;;;;;5001622;28;20458;-77
2024/01/15 05:44:00;;;;;;;29.50;15.77;;;0.80;78.80;;;;;;5006128;28;20692;-77
2024/01/15 05:46:31;;;;;;;35.58;15.65;;;0.80;78.80;;;;;;5007766;28;20262;-77
2024/01/15 05:49:00;;;;;;;34.75;16.35;;;0.80;78.90;;;;;;5007755;28;20224;-78
2024/01/15 05:51:28;;;;;;;29.98;14.77;;;0.80;78.90;;;;;;5014163;28;20207;-78
2024/01/15 05:53:56;;;;;;;36.95;16.45;;;0.80;78.80;;;;;;5014219;28;20253;-78
2024/01/15 05:56:25;;;;;;;35.40;17.00;;;0.80;78.90;;;;;;5010921;28;20782;-78
2024/01/15 05:58:53;;;;;;;39.25;15.57;;;0.80;78.90;;;;;;5011538;28;20255;-78
2024/01/15 06:01:21;;;;;;;36.85;16.50;;;0.80;78.80;;;;;;5001385;28;20293;-78
2024/01/15 06:03:49;;;;;;;39.45;16.02;;;0.80;78.80;;;;;;4996313;28;20239;-78
2024/01/15 06:06:19;;;;;;;34.10;15.75;;;0.80;78.90;;;;;;4991762;28;20304;-78
2024/01/15 06:08:47;;;;;;;34.08;16.73;;;0.80;78.90;;;;;;4992697;28;20202;-78
2024/01/15 06:11:15;;;;;;;36.42;16.88;;;0.80;78.90;;;;;;4993891;28;20231;-78
2024/01/15 06:13:43;;;;;;;36.72;17.42;;;0.70;78.90;;;;;;4990985;28;20224;-78
2024/01/15 06:16:16;;;;;;;37.45;17.70;;;0.70;78.90;;;;;;4990775;28;20220;-78
2024/01/15 06:18:43;;;;;;;39.15;15.98;;;0.70;78.90;;;;;;4998207;28;20578;-78
2024/01/15 06:21:12;;;;;;;32.40;16.08;;;0.70;79.00;;;;;;5000929;28;20209;-78
2024/01/15 06:23:42;;;;;;;35.80;16.30;;;0.70;79.00;;;;;;4993804;28;20219;-78
2024/01/15 06:26:12;;;;;;;32.85;15.20;;;0.70;79.00;;;;;;5007613;28;20209;-78
2024/01/15 06:28:40;;;;;;;30.25;14.30;;;0.70;79.00;;;;;;5005532;28;20270;-78
2024/01/15 06:31:08;;;;;;;33.53;15.07;;;0.80;79.00;;;;;;4991355;28;20254;-78
2024/01/15 06:33:36;;;;;;;37.83;14.57;;;0.70;79.00;;;;;;4988957;28;20216;-78
2024/01/15 06:36:06;;;;;;;31.58;14.63;;;0.70;79.00;;;;;;4994572;28;20223;-78
2024/01/15 06:38:34;;;;;;;31.73;15.15;;;0.70;79.10;;;;;;4986190;28;20234;-78
2024/01/15 06:41:04;;;;;;;30.42;15.57;;;0.70;79.10;;;;;;4985989;28;20203;-78
2024/01/15 06:43:32;;;;;;;37.58;15.30;;;0.70;79.10;;;;;;5007175;28;20208;-78
2024/01/15 06:46:01;;;;;;;35.03;16.35;;;0.70;79.10;;;;;;4997766;28;20203;-78
2024/01/15 06:48:35;;;;;;;40.20;15.25;;;0.70;79.10;;;;;;5000643;28;20210;-78
2024/01/15 06:51:05;;;;;;;33.40;14.75;;;0.70;79.30;;;;;;4995673;28;20205;-79
2024/01/15 06:53:33;;;;;;;31.23;14.95;;;0.70;79.10;;;;;;5009883;28;20244;-78
2024/01/15 06:56:04;;;;;;;35.55;15.95;;;0.70;79.30;;;;;;4996441;28;20337;-78
2024/01/15 06:58:34;;;;;;;31.60;14.98;;;0.70;79.10;;;;;;4992660;28;20251;-78
2024/01/15 07:01:02;;;;;;;29.73;15.23;;;0.70;79.30;;;;;;4993348;28;20268;-78
2024/01/15 07:03:31;;;;;;;34.58;16.35;;;0.70;79.30;;;;;;5013398;28;20565;-78
2024/01/15 07:05:59;;;;;;;31.30;15.32;;;0.70;79.30;;;;;;5007097;28;20203;-78
2024/01/15 07:08:27;;;;;;;37.42;16.70;;;0.70;79.30;;;;;;4993058;28;20236;-78
2024/01/15 07:10:55;;;;;;;32.00;15.40;;;0.70;79.30;;;;;;4993383;28;20225;-78
2024/01/15 07:13:25;;;;;;;32.42;15.43;;;0.80;79.30;;;;;;4998371;28;20539;-78
2024/01/15 07:15:53;;;;;;;35.53;15.05;;;0.80;79.30;;;;;;5011114;28;20633;-78
2024/01/15 07:18:21;;;;;;;32.05;15.98;;;0.80;79.30;;;;;;4995139;28;20755;-78
2024/01/15 07:20:49;;;;;;;32.60;14.90;;;0.80;79.10;;;;;;4995981;28;20203;-78
2024/01/15 07:23:17;;;;;;;36.00;15.65;;;0.80;79.30;;;;;;4998454;28;20211;-78
2024/01/15 07:25:45;;;;;;;32.92;15.48;;;0.80;79.30;;;;;;4990612;28;20236;-79
2024/01/15 07:28:14;;;;;;;40.35;16.63;;;0.80;79.10;;;;;;5007075;28;20210;-79
2024/01/15 07:30:46;;;;;;;29.23;14.80;;;0.80;79.30;;;;;;5001883;28;20289;-78
2024/01/15 07:33:14;;;;;;;34.63;14.50;;;0.80;79.30;;;;;;4987455;28;20821;-76
2024/01/15 07:35:42;;;;;;;31.45;15.27;;;0.70;79.10;;;;;;4988882;28;20283;-76
2024/01/15 07:38:11;;;;;;;36.38;14.70;;;0.70;79.30;;;;;;4985580;28;20916;-76
2024/01/15 07:40:39;;;;;;;33.75;14.57;;;0.70;79.40;;;;;;5001228;28;20639;-76
2024/01/15 07:43:07;;;;;;;27.73;14.32;;;0.80;79.40;;;;;;4987756;28;20826;-76
2024/01/15 07:45:35;;;;;;;38.22;14.80;;;0.80;79.40;;;;;;4983953;28;20229;-76
2024/01/15 07:48:06;;;;;;;29.60;13.48;;;0.80;79.50;;;;;;4983187;28;20301;-76
2024/01/15 07:50:34;;;;;;;37.40;14.27;;;0.80;79.50;;;;;;4982886;28;20649;-76
2024/01/15 07:53:02;;;;;;;29.15;15.18;;;0.80;79.50;;;;;;4981343;28;20291;-76
2024/01/15 07:55:30;;;;;;;30.85;13.98;;;0.80;79.50;;;;;;4981752;28;20200;-76
2024/01/15 07:57:59;;;;;;;30.70;14.20;;;0.80;79.60;;;;;;4984597;28;20217;-76
2024/01/15 08:00:42;;;;;;;29.20;13.75;;;0.80;79.60;;;;;;4982631;28;20333;-76
2024/01/15 08:03:12;;;;;;;32.60;12.75;;;0.90;79.70;;;;;;4989245;28;20210;-76
2024/01/15 08:05:40;;;;;;;28.38;14.52;;;0.90;79.70;;;;;;4984102;28;20296;-76
2024/01/15 08:08:08;;;;;;;26.23;13.02;;;0.90;79.60;;;;;;4982166;28;20204;-76
2024/01/15 08:10:36;;;;;;;27.60;13.98;;;0.90;79.60;;;;;;4984540;28;20202;-76
2024/01/15 08:13:04;;;;;;;29.23;14.60;;;0.90;79.60;;;;;;4980605;28;20631;-76
2024/01/15 08:15:32;;;;;;;25.73;13.10;;;1.00;79.60;;;;;;4986153;28;20661;-76
2024/01/15 08:18:01;;;;;;;27.73;13.75;;;0.90;79.50;;;;;;4987265;28;20642;-76
2024/01/15 08:20:30;;;;;;;29.75;14.52;;;0.90;79.60;;;;;;4982359;28;20230;-76
2024/01/15 08:22:58;;;;;;;24.08;12.82;;;0.90;79.60;;;;;;4985333;28;20211;-76
2024/01/15 08:25:26;;;;;;;27.30;13.55;;;1.00;79.70;;;;;;4984684;28;20273;-76
2024/01/15 08:27:54;;;;;;;26.17;12.43;;;1.00;79.70;;;;;;4986130;28;20299;-76
2024/01/15 08:30:26;;;;;;;25.15;13.32;;;1.00;79.70;;;;;;4988978;28;20207;-76
2024/01/15 08:32:54;;;;;;;28.20;12.55;;;1.00;79.70;;;;;;4988930;28;20237;-76
2024/01/15 08:35:24;;;;;;;29.70;13.15;;;1.10;79.70;;;;;;4988055;28;20205;-76
2024/01/15 08:37:54;;;;;;;28.63;14.30;;;1.10;79.60;;;;;;4982888;28;20214;-76
2024/01/15 08:40:22;;;;;;;28.35;14.48;;;1.10;79.70;;;;;;4986145;28;20226;-76
2024/01/15 08:42:50;;;;;;;28.08;13.57;;;1.10;79.70;;;;;;4984222;28;20619;-76
2024/01/15 08:45:19;;;;;;;31.60;14.48;;;1.10;79.70;;;;;;4997627;28;20205;-76
2024/01/15 08:47:47;;;;;;;30.95;13.93;;;1.10;79.80;;;;;;4987728;28;20219;-76
2024/01/15 08:50:15;;;;;;;30.95;14.05;;;1.10;79.80;;;;;;4987268;28;20308;-76
2024/01/15 08:52:43;;;;;;;31.13;14.65;;;1.10;79.90;;;;;;4983276;28;20663;-76
2024/01/15 08:55:13;;;;;;;29.00;13.23;;;1.10;80.00;;;;;;4981684;28;20283;-76
2024/01/15 08:57:41;;;;;;;31.67;13.98;;;1.20;80.00;;;;;;4986061;28;20243;-76
2024/01/15 09:00:10;;;;;;;32.13;14.32;;;1.20;80.00;;;;;;4984191;28;20544;-76
2024/01/15 09:02:38;;;;;;;24.45;13.55;;;1.20;79.90;;;;;;5016505;28;20263;-76
2024/01/15 09:05:07;;;;;;;27.88;13.48;;;1.20;80.00;;;;;;5010119;28;20211;-76
2024/01/15 09:07:35;;;;;;;31.98;14.85;;;1.20;80.00;;;;;;4999390;28;20201;-76
2024/01/15 09:10:03;;;;;;;29.40;13.95;;;1.30;80.00;;;;;;4999914;28;20280;-76
2024/01/15 09:12:32;;;;;;;28.50;13.80;;;1.30;80.00;;;;;;5013747;28;20204;-76
2024/01/15 09:15:04;;;;;;;25.67;12.57;;;1.30;80.00;;;;;;5000623;28;20225;-76
2024/01/15 09:17:32;;;;;;;30.13;13.70;;;1.30;80.00;;;;;;5008180;28;20206;-76
2024/01/15 09:20:01;;;;;;;28.60;14.55;;;1.30;80.00;;;;;;5004228;28;20232;-76
2024/01/15 09:22:29;;;;;;;28.95;13.82;;;1.30;80.10;;;;;;4999589;28;20223;-76
2024/01/15 09:24:57;;;;;;;25.85;12.82;;;1.30;80.10;;;;;;5004357;28;20218;-76
2024/01/15 09:27:26;;;;;;;26.98;12.95;;;1.30;80.10;;;;;;5003161;28;20258;-76
2024/01/15 09:29:55;;;;;;;25.13;12.85;;;1.30;80.00;;;;;;5001305;28;20290;-76
2024/01/15 09:32:23;;;;;;;28.95;14.02;;;1.30;80.10;;;;;;4999862;28;20688;-76
2024/01/15 09:34:51;;;;;;;29.40;15.25;;;1.40;80.10;;;;;;5002084;28;20254;-75
2024/01/15 09:37:19;;;;;;;30.10;14.43;;;1.40;80.10;;;;;;5002205;28;20620;-76
2024/01/15 09:40:13;;;;;;;28.48;14.30;;;1.40;80.10;;;;;;5002824;28;20213;-76
2024/01/15 09:42:42;;;;;;;30.60;13.57;;;1.40;80.10;;;;;;5003880;28;20657;-76
2024/01/15 09:45:13;;;;;;;24.08;12.65;;;1.40;80.10;;;;;;5001934;28;20210;-76
2024/01/15 09:47:43;;;;;;;27.50;14.25;;;1.50;80.10;;;;;;5001579;28;20214;-76
2024/01/15 09:50:14;;;;;;;27.88;13.30;;;1.50;80.10;;;;;;5001807;28;20717;-76
2024/01/15 09:52:44;;;;;;;28.40;14.35;;;1.40;80.10;;;;;;5001937;28;20212;-76
2024/01/15 09:55:15;;;;;;;28.98;15.05;;;1.40;80.10;;;;;;5002122;28;20201;-75
2024/01/15 09:57:44;;;;;;;27.38;13.48;;;1.40;80.10;;;;;;5000790;28;20306;-76
2024/01/15 10:00:15;;;;;;;27.23;12.73;;;1.40;80.20;;;;;;4993562;28;20220;-76
2024/01/15 10:02:43;;;;;;;29.67;13.20;;;1.40;80.30;;;;;;5002836;28;20231;-76
2024/01/15 10:05:11;;;;;;;24.85;13.43;;;1.50;80.30;;;;;;5000580;28;20222;-76
2024/01/15 10:07:40;;;;;;;27.65;13.10;;;1.50;80.20;;;;;;5002411;28;20318;-76
2024/01/15 10:10:09;;;;;;;27.88;14.20;;;1.50;80.20;;;;;;5001997;28;20658;-76
2024/01/15 10:12:38;;;;;;;30.85;12.30;;;1.50;80.20;;;;;;5016519;28;20208;-76
2024/01/15 10:15:09;;;;;;;22.60;11.68;;;1.60;80.20;;;;;;4999292;28;20216;-76
2024/01/15 10:17:39;;;;;;;26.10;13.93;;;1.60;80.20;;;;;;5008888;28;20231;-76
2024/01/15 10:20:10;;;;;;;25.15;12.40;;;1.60;80.20;;;;;;5006010;28;20250;-76
2024/01/15 10:22:42;;;;;;;26.45;13.43;;;1.60;80.20;;;;;;5008084;28;20242;-76
2024/01/15 10:25:11;;;;;;;24.13;12.13;;;1.60;80.20;;;;;;5005102;28;20216;-76
2024/01/15 10:27:40;;;;;;;25.83;13.30;;;1.70;80.30;;;;;;5004661;28;20219;-77
2024/01/15 10:30:09;;;;;;;23.58;12.55;;;1.70;80.30;;;;;;5004022;28;20638;-76
2024/01/15 10:32:41;;;;;;;24.75;13.40;;;1.70;80.30;;;;;;5008712;28;20678;-76
2024/01/15 10:35:09;;;;;;;21.63;11.50;;;1.70;80.30;;;;;;5007771;28;20302;-76
2024/01/15 10:37:37;;;;;;;24.75;12.07;;;1.80;80.30;;;;;;5008884;28;20262;-76
2024/01/15 10:40:06;;;;;;;25.05;13.23;;;1.80;80.30;;;;;;5008382;28;20229;-76
2024/01/15 10:42:34;;;;;;;22.70;12.90;;;1.80;80.30;;;;;;5019938;28;20318;-76
2024/01/15 10:45:02;;;;;;;24.20;12.65;;;1.90;80.30;;;;;;5004732;28;20213;-76
2024/01/15 10:47:31;;;;;;;21.92;12.48;;;1.90;80.30;;;;;;5007899;28;20610;-76
2024/01/15 10:50:01;;;;;;;23.27;12.45;;;1.90;80.20;;;;;;5022987;28;20316;-76
2024/01/15 10:52:30;;;;;;;20.52;12.43;;;1.90;80.20;;;;;;5023481;28;20216;-75
2024/01/15 10:54:58;;;;;;;26.00;13.23;;;1.90;80.30;;;;;;5008210;28;20225;-76
2024/01/15 10:57:32;;;;;;;22.25;11.98;;;2.00;80.20;;;;;;5006524;28;20674;-76
2024/01/15 11:00:02;;;;;;;24.85;12.30;;;2.00;80.10;;;;;;5006542;28;20252;-76
2024/01/15 11:02:31;;;;;;;23.35;12.15;;;2.00;80.10;;;;;;4985693;28;20228;-76
2024/01/15 11:05:01;;;;;;;22.33;12.52;;;2.00;80.00;;;;;;4987998;28;20628;-76
2024/01/15 11:07:31;;;;;;;23.65;12.73;;;2.00;79.90;;;;;;4990943;28;20205;-76
2024/01/15 11:09:59;;;;;;;23.10;12.40;;;1.90;79.80;;;;;;4994259;28;20202;-76
2024/01/15 11:12:27;;;;;;;26.38;11.88;;;1.90;79.80;;;;;;4986243;28;20207;-76
2024/01/15 11:15:04;;;;;;;24.83;12.80;;;1.90;79.80;;;;;;4997761;28;20234;-76
2024/01/15 11:18:00;;;;;;;22.83;12.02;;;1.80;79.80;;;;;;5002101;28;20697;-76
2024/01/15 11:20:30;;;;;;;25.80;12.50;;;1.80;79.90;;;;;;4986793;28;20261;-76
2024/01/15 11:22:59;;;;;;;25.35;12.52;;;1.80;79.90;;;;;;4986951;28;20206;-76
2024/01/15 11:25:37;;;;;;;23.65;12.90;;;1.80;79.90;;;;;;4982485;28;20269;-76
2024/01/15 11:28:05;;;;;;;21.73;12.57;;;1.90;79.90;;;;;;4987269;28;20625;-76
2024/01/15 11:30:36;;;;;;;25.92;12.05;;;1.80;80.00;;;;;;4996713;28;20237;-76
2024/01/15 11:33:07;;;;;;;24.15;12.80;;;1.90;80.00;;;;;;4997692;28;20322;-76
2024/01/15 11:35:52;;;;;;;21.90;11.25;;;1.90;80.10;;;;;;4985697;28;20208;-76
2024/01/15 11:38:29;;;;;;;21.33;11.98;;;1.90;80.10;;;;;;4986158;28;20200;-76
2024/01/15 11:41:01;;;;;;;22.75;12.43;;;1.90;80.10;;;;;;4982119;28;20220;-76
2024/01/15 11:43:31;;;;;;;23.90;12.32;;;2.00;80.10;;;;;;4986634;28;20662;-76
2024/01/15 11:46:03;;;;;;;27.25;13.73;;;2.00;80.00;;;;;;4985687;28;20287;-76
2024/01/15 11:48:43;;;;;;;21.17;11.82;;;2.10;80.00;;;;;;4982025;28;20895;-76
2024/01/15 11:51:13;;;;;;;21.90;13.20;;;2.00;79.90;;;;;;4999211;28;20715;-76
2024/01/15 11:53:47;;;;;;;21.75;11.85;;;2.00;79.80;;;;;;4981900;28;20209;-76
2024/01/15 11:56:17;;;;;;;21.38;11.73;;;2.00;79.90;;;;;;4980501;28;20210;-75
2024/01/15 11:58:45;;;;;;;23.48;11.65;;;2.00;79.80;;;;;;4987297;28;20271;-76
2024/01/15 12:01:13;;;;;;;24.20;12.98;;;2.00;79.90;;;;;;4981392;28;20238;-76
2024/01/15 12:03:41;;;;;;;24.35;13.90;;;2.00;79.90;;;;;;4993280;28;20208;-76
2024/01/15 12:06:11;;;;;;;19.80;11.25;;;2.00;79.80;;;;;;4991232;28;20249;-76
2024/01/15 12:08:41;;;;;;;21.38;12.80;;;2.00;79.80;;;;;;4980901;28;20635;-76
2024/01/15 12:11:14;;;;;;;24.38;12.98;;;2.00;79.80;;;;;;4983217;28;20301;-76
2024/01/15 12:13:42;;;;;;;25.20;12.88;;;1.90;79.80;;;;;;4981321;28;20625;-76
2024/01/15 12:16:10;;;;;;;20.77;11.88;;;1.90;79.80;;;;;;4985566;28;20209;-76
2024/01/15 12:18:38;;;;;;;19.75;11.32;;;1.90;79.90;;;;;;4987496;28;20296;-76
2024/01/15 12:21:07;;;;;;;22.92;12.85;;;1.90;80.00;;;;;;4980824;28;20225;-76
2024/01/15 12:23:35;;;;;;;19.48;11.50;;;1.90;80.00;;;;;;4984436;28;20220;-76
2024/01/15 12:26:05;;;;;;;23.70;12.25;;;1.90;80.10;;;;;;4983393;28;20206;-76
2024/01/15 12:28:33;;;;;;;21.88;11.50;;;1.90;80.10;;;;;;4984681;28;20208;-76
2024/01/15 12:31:05;;;;;;;22.15;11.20;;;1.90;80.10;;;;;;4985416;28;20296;-76
2024/01/15 12:33:34;;;;;;;18.75;11.05;;;1.90;80.30;;;;;;4986282;28;20256;-76
2024/01/15 12:36:02;;;;;;;20.00;11.45;;;1.90;80.30;;;;;;4993178;28;20205;-76
2024/01/15 12:38:30;;;;;;;17.02;9.85;;;1.90;80.30;;;;;;4983464;28;20780;-76
2024/01/15 12:40:58;;;;;;;18.90;11.30;;;2.00;80.30;;;;;;4981496;28;20190;-76
2024/01/15 12:43:28;;;;;;;18.63;11.38;;;2.00;80.40;;;;;;4986934;28;20224;-76
2024/01/15 12:45:56;;;;;;;14.27;8.90;;;2.10;80.50;;;;;;4985830;28;20273;-76